sensor_id;sensor_type;location;lat;lon;timestamp;P1;durP1;ratioP1;P2;durP2;ratioP2
51048;SDS011;37084;55.228;36.450;2023-12-07T00:02:58;22.02;;;8.65;;
51048;SDS011;37084;55.228;36.450;2023-12-07T00:06:00;16.70;;;6.45;;
51048;SDS011;37084;55.228;36.450;2023-12-07T00:09:02;19.33;;;6.93;;
51048;SDS011;37084;55.228;36.450;2023-12-07T00:12:03;19.60;;;6.88;;
51048;SDS011;37084;55.228;36.450;2023-12-07T00:15:05;25.50;;;7.75;;
51048;SDS011;37084;55.228;36.450;2023-12-07T00:18:07;26.98;;;7.18;;
51048;SDS011;37084;55.228;36.450;2023-12-07T00:21:08;25.42;;;8.68;;
51048;SDS011;37084;55.228;36.450;2023-12-07T00:24:10;20.05;;;7.80;;
51048;SDS011;37084;55.228;36.450;2023-12-07T00:27:11;18.98;;;6.72;;
51048;SDS011;37084;55.228;36.450;2023-12-07T00:30:13;26.10;;;8.48;;
51048;SDS011;37084;55.228;36.450;2023-12-07T00:33:14;21.55;;;7.13;;
51048;SDS011;37084;55.228;36.450;2023-12-07T00:36:17;21.90;;;7.28;;
51048;SDS011;37084;55.228;36.450;2023-12-07T00:39:18;20.88;;;7.78;;
51048;SDS011;37084;55.228;36.450;2023-12-07T00:42:21;21.27;;;7.88;;
51048;SDS011;37084;55.228;36.450;2023-12-07T00:45:22;23.50;;;8.18;;
51048;SDS011;37084;55.228;36.450;2023-12-07T00:48:23;20.73;;;7.15;;
51048;SDS011;37084;55.228;36.450;2023-12-07T00:51:25;24.88;;;7.47;;
51048;SDS011;37084;55.228;36.450;2023-12-07T00:54:26;19.95;;;6.97;;
51048;SDS011;37084;55.228;36.450;2023-12-07T00:57:27;26.70;;;9.32;;
51048;SDS011;37084;55.228;36.450;2023-12-07T01:00:29;25.73;;;7.75;;
51048;SDS011;37084;55.228;36.450;2023-12-07T01:03:30;23.17;;;8.68;;
51048;SDS011;37084;55.228;36.450;2023-12-07T01:06:32;30.45;;;8.07;;
51048;SDS011;37084;55.228;36.450;2023-12-07T01:09:33;25.15;;;8.15;;
51048;SDS011;37084;55.228;36.450;2023-12-07T01:12:37;23.63;;;8.88;;
51048;SDS011;37084;55.228;36.450;2023-12-07T01:15:38;25.00;;;9.55;;
51048;SDS011;37084;55.228;36.450;2023-12-07T01:18:39;26.13;;;8.35;;
51048;SDS011;37084;55.228;36.450;2023-12-07T01:21:41;17.05;;;7.00;;
51048;SDS011;37084;55.228;36.450;2023-12-07T01:24:42;27.98;;;8.90;;
51048;SDS011;37084;55.228;36.450;2023-12-07T01:27:44;23.33;;;7.40;;
51048;SDS011;37084;55.228;36.450;2023-12-07T01:30:46;23.42;;;9.23;;
51048;SDS011;37084;55.228;36.450;2023-12-07T01:33:47;25.15;;;8.63;;
51048;SDS011;37084;55.228;36.450;2023-12-07T01:36:48;29.85;;;9.32;;
51048;SDS011;37084;55.228;36.450;2023-12-07T01:39:50;24.45;;;8.75;;
51048;SDS011;37084;55.228;36.450;2023-12-07T01:42:52;20.63;;;8.27;;
51048;SDS011;37084;55.228;36.450;2023-12-07T01:45:54;22.27;;;8.05;;
51048;SDS011;37084;55.228;36.450;2023-12-07T01:48:58;23.42;;;8.98;;
51048;SDS011;37084;55.228;36.450;2023-12-07T01:51:59;25.95;;;8.88;;
51048;SDS011;37084;55.228;36.450;2023-12-07T01:55:00;23.80;;;6.80;;
51048;SDS011;37084;55.228;36.450;2023-12-07T01:58:04;25.92;;;8.55;;
51048;SDS011;37084;55.228;36.450;2023-12-07T02:01:05;18.42;;;7.07;;
51048;SDS011;37084;55.228;36.450;2023-12-07T02:04:07;24.00;;;7.30;;
51048;SDS011;37084;55.228;36.450;2023-12-07T02:07:08;19.15;;;8.15;;
51048;SDS011;37084;55.228;36.450;2023-12-07T02:10:10;20.42;;;7.95;;
51048;SDS011;37084;55.228;36.450;2023-12-07T02:13:12;22.83;;;7.00;;
51048;SDS011;37084;55.228;36.450;2023-12-07T02:16:37;18.98;;;6.75;;
51048;SDS011;37084;55.228;36.450;2023-12-07T02:23:00;21.27;;;7.35;;
51048;SDS011;37084;55.228;36.450;2023-12-07T02:29:35;23.75;;;6.55;;
51048;SDS011;37084;55.228;36.450;2023-12-07T02:32:37;17.38;;;6.43;;
51048;SDS011;37084;55.228;36.450;2023-12-07T02:35:45;9.25;;;4.90;;
51048;SDS011;37084;55.228;36.450;2023-12-07T02:38:47;15.63;;;6.07;;
51048;SDS011;37084;55.228;36.450;2023-12-07T02:41:50;19.33;;;8.05;;
51048;SDS011;37084;55.228;36.450;2023-12-07T02:44:54;22.42;;;7.43;;
51048;SDS011;37084;55.228;36.450;2023-12-07T02:47:56;20.50;;;7.13;;
51048;SDS011;37084;55.228;36.450;2023-12-07T02:50:58;14.55;;;6.07;;
51048;SDS011;37084;55.228;36.450;2023-12-07T02:54:00;17.58;;;7.00;;
51048;SDS011;37084;55.228;36.450;2023-12-07T02:57:01;14.98;;;5.20;;
51048;SDS011;37084;55.228;36.450;2023-12-07T03:00:04;17.65;;;6.80;;
51048;SDS011;37084;55.228;36.450;2023-12-07T03:06:10;16.80;;;6.05;;
51048;SDS011;37084;55.228;36.450;2023-12-07T03:09:11;23.60;;;7.35;;
51048;SDS011;37084;55.228;36.450;2023-12-07T03:12:13;16.42;;;6.32;;
51048;SDS011;37084;55.228;36.450;2023-12-07T03:15:14;18.35;;;6.03;;
51048;SDS011;37084;55.228;36.450;2023-12-07T03:18:16;22.65;;;7.35;;
51048;SDS011;37084;55.228;36.450;2023-12-07T03:21:17;15.65;;;7.72;;
51048;SDS011;37084;55.228;36.450;2023-12-07T03:24:18;19.77;;;7.93;;
51048;SDS011;37084;55.228;36.450;2023-12-07T03:27:20;17.33;;;6.55;;
51048;SDS011;37084;55.228;36.450;2023-12-07T03:30:21;22.75;;;8.45;;
51048;SDS011;37084;55.228;36.450;2023-12-07T03:33:22;19.48;;;6.53;;
51048;SDS011;37084;55.228;36.450;2023-12-07T03:36:24;15.32;;;6.38;;
51048;SDS011;37084;55.228;36.450;2023-12-07T03:39:25;18.92;;;7.68;;
51048;SDS011;37084;55.228;36.450;2023-12-07T03:42:27;17.83;;;7.30;;
51048;SDS011;37084;55.228;36.450;2023-12-07T03:45:29;15.15;;;6.07;;
51048;SDS011;37084;55.228;36.450;2023-12-07T03:48:30;18.27;;;7.70;;
51048;SDS011;37084;55.228;36.450;2023-12-07T03:51:32;14.95;;;7.10;;
51048;SDS011;37084;55.228;36.450;2023-12-07T03:54:35;16.35;;;6.90;;
51048;SDS011;37084;55.228;36.450;2023-12-07T03:57:36;16.02;;;7.10;;
51048;SDS011;37084;55.228;36.450;2023-12-07T04:00:37;16.50;;;6.10;;
51048;SDS011;37084;55.228;36.450;2023-12-07T04:03:39;17.88;;;6.82;;
51048;SDS011;37084;55.228;36.450;2023-12-07T04:06:40;18.25;;;7.07;;
51048;SDS011;37084;55.228;36.450;2023-12-07T04:09:41;20.27;;;6.13;;
51048;SDS011;37084;55.228;36.450;2023-12-07T04:12:43;14.98;;;6.35;;
51048;SDS011;37084;55.228;36.450;2023-12-07T04:15:44;18.83;;;6.70;;
51048;SDS011;37084;55.228;36.450;2023-12-07T04:18:46;13.90;;;6.18;;
51048;SDS011;37084;55.228;36.450;2023-12-07T04:21:48;15.27;;;5.82;;
51048;SDS011;37084;55.228;36.450;2023-12-07T04:24:49;11.98;;;5.82;;
51048;SDS011;37084;55.228;36.450;2023-12-07T04:27:51;13.90;;;5.90;;
51048;SDS011;37084;55.228;36.450;2023-12-07T04:30:52;15.68;;;6.57;;
51048;SDS011;37084;55.228;36.450;2023-12-07T04:33:54;11.50;;;5.05;;
51048;SDS011;37084;55.228;36.450;2023-12-07T04:36:55;13.05;;;5.35;;
51048;SDS011;37084;55.228;36.450;2023-12-07T04:39:57;12.35;;;5.45;;
51048;SDS011;37084;55.228;36.450;2023-12-07T04:42:59;11.80;;;4.63;;
51048;SDS011;37084;55.228;36.450;2023-12-07T04:46:00;12.65;;;5.20;;
51048;SDS011;37084;55.228;36.450;2023-12-07T04:49:02;14.07;;;5.18;;
51048;SDS011;37084;55.228;36.450;2023-12-07T04:52:03;15.15;;;6.68;;
51048;SDS011;37084;55.228;36.450;2023-12-07T04:55:05;12.00;;;5.32;;
51048;SDS011;37084;55.228;36.450;2023-12-07T04:58:07;12.48;;;6.03;;
51048;SDS011;37084;55.228;36.450;2023-12-07T05:01:10;13.38;;;5.38;;
51048;SDS011;37084;55.228;36.450;2023-12-07T05:04:11;18.38;;;6.18;;
51048;SDS011;37084;55.228;36.450;2023-12-07T05:07:12;15.90;;;5.93;;
51048;SDS011;37084;55.228;36.450;2023-12-07T05:10:14;12.57;;;4.72;;
51048;SDS011;37084;55.228;36.450;2023-12-07T05:13:15;9.15;;;4.22;;
51048;SDS011;37084;55.228;36.450;2023-12-07T05:16:16;10.57;;;5.15;;
51048;SDS011;37084;55.228;36.450;2023-12-07T05:19:22;12.50;;;5.50;;
51048;SDS011;37084;55.228;36.450;2023-12-07T05:22:25;9.77;;;5.03;;
51048;SDS011;37084;55.228;36.450;2023-12-07T05:25:26;12.50;;;4.90;;
51048;SDS011;37084;55.228;36.450;2023-12-07T05:28:27;10.43;;;5.72;;
51048;SDS011;37084;55.228;36.450;2023-12-07T05:31:29;14.05;;;6.13;;
51048;SDS011;37084;55.228;36.450;2023-12-07T05:34:30;12.20;;;5.78;;
51048;SDS011;37084;55.228;36.450;2023-12-07T05:37:31;12.88;;;5.57;;
51048;SDS011;37084;55.228;36.450;2023-12-07T05:40:33;10.57;;;4.55;;
51048;SDS011;37084;55.228;36.450;2023-12-07T05:43:34;10.38;;;4.50;;
51048;SDS011;37084;55.228;36.450;2023-12-07T05:46:37;14.98;;;6.93;;
51048;SDS011;37084;55.228;36.450;2023-12-07T05:49:40;11.27;;;5.15;;
51048;SDS011;37084;55.228;36.450;2023-12-07T05:52:42;17.67;;;5.43;;
51048;SDS011;37084;55.228;36.450;2023-12-07T05:55:43;16.38;;;6.53;;
51048;SDS011;37084;55.228;36.450;2023-12-07T05:58:44;9.65;;;4.82;;
51048;SDS011;37084;55.228;36.450;2023-12-07T06:01:48;13.02;;;6.15;;
51048;SDS011;37084;55.228;36.450;2023-12-07T06:04:54;15.10;;;6.30;;
51048;SDS011;37084;55.228;36.450;2023-12-07T06:07:55;10.25;;;4.95;;
51048;SDS011;37084;55.228;36.450;2023-12-07T06:10:57;15.65;;;6.22;;
51048;SDS011;37084;55.228;36.450;2023-12-07T06:13:58;11.82;;;5.53;;
51048;SDS011;37084;55.228;36.450;2023-12-07T06:17:00;11.93;;;6.25;;
51048;SDS011;37084;55.228;36.450;2023-12-07T06:20:03;13.77;;;5.72;;
51048;SDS011;37084;55.228;36.450;2023-12-07T06:23:05;14.10;;;5.65;;
51048;SDS011;37084;55.228;36.450;2023-12-07T06:26:07;12.75;;;4.95;;
51048;SDS011;37084;55.228;36.450;2023-12-07T06:29:10;12.60;;;6.00;;
51048;SDS011;37084;55.228;36.450;2023-12-07T06:32:11;11.75;;;4.97;;
51048;SDS011;37084;55.228;36.450;2023-12-07T06:35:12;12.20;;;4.95;;
51048;SDS011;37084;55.228;36.450;2023-12-07T06:38:16;15.65;;;5.68;;
51048;SDS011;37084;55.228;36.450;2023-12-07T06:41:18;15.50;;;6.32;;
51048;SDS011;37084;55.228;36.450;2023-12-07T06:44:21;13.63;;;6.28;;
51048;SDS011;37084;55.228;36.450;2023-12-07T06:47:22;11.10;;;5.32;;
51048;SDS011;37084;55.228;36.450;2023-12-07T06:50:24;12.10;;;4.95;;
51048;SDS011;37084;55.228;36.450;2023-12-07T06:53:27;14.50;;;5.72;;
51048;SDS011;37084;55.228;36.450;2023-12-07T06:56:29;15.27;;;6.05;;
51048;SDS011;37084;55.228;36.450;2023-12-07T06:59:30;16.05;;;6.65;;
51048;SDS011;37084;55.228;36.450;2023-12-07T07:02:31;16.15;;;6.43;;
51048;SDS011;37084;55.228;36.450;2023-12-07T07:05:33;15.43;;;5.90;;
51048;SDS011;37084;55.228;36.450;2023-12-07T07:08:34;10.95;;;5.15;;
51048;SDS011;37084;55.228;36.450;2023-12-07T07:11:35;15.23;;;6.43;;
51048;SDS011;37084;55.228;36.450;2023-12-07T07:14:37;18.98;;;7.82;;
51048;SDS011;37084;55.228;36.450;2023-12-07T07:17:39;16.33;;;6.35;;
51048;SDS011;37084;55.228;36.450;2023-12-07T07:20:40;11.55;;;5.40;;
51048;SDS011;37084;55.228;36.450;2023-12-07T07:23:41;15.40;;;6.93;;
51048;SDS011;37084;55.228;36.450;2023-12-07T07:26:43;18.38;;;6.22;;
51048;SDS011;37084;55.228;36.450;2023-12-07T07:29:44;16.98;;;6.28;;
51048;SDS011;37084;55.228;36.450;2023-12-07T07:32:46;8.80;;;5.47;;
51048;SDS011;37084;55.228;36.450;2023-12-07T07:35:52;16.83;;;7.47;;
51048;SDS011;37084;55.228;36.450;2023-12-07T07:38:53;16.85;;;6.45;;
51048;SDS011;37084;55.228;36.450;2023-12-07T07:41:55;17.40;;;7.57;;
51048;SDS011;37084;55.228;36.450;2023-12-07T07:44:56;13.98;;;4.55;;
51048;SDS011;37084;55.228;36.450;2023-12-07T07:47:57;15.93;;;5.82;;
51048;SDS011;37084;55.228;36.450;2023-12-07T07:50:59;18.55;;;7.85;;
51048;SDS011;37084;55.228;36.450;2023-12-07T07:54:02;18.50;;;6.93;;
51048;SDS011;37084;55.228;36.450;2023-12-07T07:57:04;17.15;;;7.80;;
51048;SDS011;37084;55.228;36.450;2023-12-07T08:00:07;16.30;;;6.55;;
51048;SDS011;37084;55.228;36.450;2023-12-07T08:03:09;14.98;;;5.80;;
51048;SDS011;37084;55.228;36.450;2023-12-07T08:06:10;14.18;;;5.82;;
51048;SDS011;37084;55.228;36.450;2023-12-07T08:09:11;15.95;;;6.40;;
51048;SDS011;37084;55.228;36.450;2023-12-07T08:12:13;14.18;;;6.20;;
51048;SDS011;37084;55.228;36.450;2023-12-07T08:15:15;12.18;;;5.97;;
51048;SDS011;37084;55.228;36.450;2023-12-07T08:18:17;11.30;;;5.50;;
51048;SDS011;37084;55.228;36.450;2023-12-07T08:21:18;13.40;;;5.97;;
51048;SDS011;37084;55.228;36.450;2023-12-07T08:24:21;16.50;;;5.93;;
51048;SDS011;37084;55.228;36.450;2023-12-07T08:27:26;14.95;;;6.53;;
51048;SDS011;37084;55.228;36.450;2023-12-07T08:30:27;11.98;;;5.85;;
51048;SDS011;37084;55.228;36.450;2023-12-07T08:33:28;11.93;;;5.70;;
51048;SDS011;37084;55.228;36.450;2023-12-07T08:36:30;16.73;;;7.57;;
51048;SDS011;37084;55.228;36.450;2023-12-07T08:39:32;14.02;;;6.88;;
51048;SDS011;37084;55.228;36.450;2023-12-07T08:42:33;16.48;;;6.47;;
51048;SDS011;37084;55.228;36.450;2023-12-07T08:45:34;15.30;;;6.28;;
51048;SDS011;37084;55.228;36.450;2023-12-07T08:48:38;15.73;;;7.22;;
51048;SDS011;37084;55.228;36.450;2023-12-07T08:51:40;14.75;;;7.18;;
51048;SDS011;37084;55.228;36.450;2023-12-07T08:54:41;12.13;;;6.35;;
51048;SDS011;37084;55.228;36.450;2023-12-07T08:57:42;11.82;;;5.40;;
51048;SDS011;37084;55.228;36.450;2023-12-07T09:00:44;16.20;;;7.75;;
51048;SDS011;37084;55.228;36.450;2023-12-07T09:03:45;14.32;;;6.82;;
51048;SDS011;37084;55.228;36.450;2023-12-07T09:06:47;14.73;;;6.95;;
51048;SDS011;37084;55.228;36.450;2023-12-07T09:09:48;13.82;;;6.20;;
51048;SDS011;37084;55.228;36.450;2023-12-07T09:12:50;15.52;;;6.82;;
51048;SDS011;37084;55.228;36.450;2023-12-07T09:15:51;15.70;;;6.82;;
51048;SDS011;37084;55.228;36.450;2023-12-07T09:18:54;18.98;;;8.32;;
51048;SDS011;37084;55.228;36.450;2023-12-07T09:21:56;15.27;;;6.40;;
51048;SDS011;37084;55.228;36.450;2023-12-07T09:24:59;14.77;;;7.25;;
51048;SDS011;37084;55.228;36.450;2023-12-07T09:28:01;15.45;;;7.13;;
51048;SDS011;37084;55.228;36.450;2023-12-07T09:31:07;16.75;;;7.13;;
51048;SDS011;37084;55.228;36.450;2023-12-07T09:34:09;17.27;;;7.82;;
51048;SDS011;37084;55.228;36.450;2023-12-07T09:37:18;17.95;;;6.13;;
51048;SDS011;37084;55.228;36.450;2023-12-07T09:40:22;14.82;;;6.43;;
51048;SDS011;37084;55.228;36.450;2023-12-07T09:43:25;15.27;;;7.00;;
51048;SDS011;37084;55.228;36.450;2023-12-07T09:46:26;14.95;;;7.38;;
51048;SDS011;37084;55.228;36.450;2023-12-07T09:49:29;14.48;;;6.95;;
51048;SDS011;37084;55.228;36.450;2023-12-07T09:52:31;13.73;;;6.50;;
51048;SDS011;37084;55.228;36.450;2023-12-07T09:55:34;12.88;;;6.68;;
51048;SDS011;37084;55.228;36.450;2023-12-07T09:58:36;17.42;;;7.68;;
51048;SDS011;37084;55.228;36.450;2023-12-07T10:01:41;12.88;;;6.22;;
51048;SDS011;37084;55.228;36.450;2023-12-07T10:04:42;12.50;;;6.03;;
51048;SDS011;37084;55.228;36.450;2023-12-07T10:07:45;14.27;;;6.93;;
51048;SDS011;37084;55.228;36.450;2023-12-07T10:10:50;14.82;;;6.88;;
51048;SDS011;37084;55.228;36.450;2023-12-07T10:14:08;15.23;;;7.20;;
51048;SDS011;37084;55.228;36.450;2023-12-07T10:17:10;16.60;;;8.82;;
51048;SDS011;37084;55.228;36.450;2023-12-07T10:20:11;12.75;;;6.28;;
51048;SDS011;37084;55.228;36.450;2023-12-07T10:23:13;17.23;;;6.97;;
51048;SDS011;37084;55.228;36.450;2023-12-07T10:26:18;16.35;;;7.30;;
51048;SDS011;37084;55.228;36.450;2023-12-07T10:29:21;16.42;;;7.90;;
51048;SDS011;37084;55.228;36.450;2023-12-07T10:32:24;15.43;;;7.22;;
51048;SDS011;37084;55.228;36.450;2023-12-07T10:35:26;15.70;;;7.65;;
51048;SDS011;37084;55.228;36.450;2023-12-07T10:38:27;13.70;;;5.82;;
51048;SDS011;37084;55.228;36.450;2023-12-07T10:41:29;14.02;;;7.28;;
51048;SDS011;37084;55.228;36.450;2023-12-07T10:44:30;17.25;;;7.03;;
51048;SDS011;37084;55.228;36.450;2023-12-07T10:47:37;15.32;;;6.95;;
51048;SDS011;37084;55.228;36.450;2023-12-07T10:50:42;14.90;;;6.50;;
51048;SDS011;37084;55.228;36.450;2023-12-07T10:53:48;15.82;;;7.47;;
51048;SDS011;37084;55.228;36.450;2023-12-07T10:56:49;14.60;;;6.57;;
51048;SDS011;37084;55.228;36.450;2023-12-07T10:59:51;16.17;;;7.78;;
51048;SDS011;37084;55.228;36.450;2023-12-07T11:02:53;17.90;;;7.63;;
51048;SDS011;37084;55.228;36.450;2023-12-07T11:05:55;15.20;;;7.07;;
51048;SDS011;37084;55.228;36.450;2023-12-07T11:09:00;15.77;;;7.45;;
51048;SDS011;37084;55.228;36.450;2023-12-07T11:12:16;16.67;;;7.03;;
51048;SDS011;37084;55.228;36.450;2023-12-07T11:15:20;13.95;;;6.47;;
51048;SDS011;37084;55.228;36.450;2023-12-07T11:18:21;14.82;;;7.15;;
51048;SDS011;37084;55.228;36.450;2023-12-07T11:21:23;12.43;;;6.22;;
51048;SDS011;37084;55.228;36.450;2023-12-07T11:24:24;13.80;;;6.35;;
51048;SDS011;37084;55.228;36.450;2023-12-07T11:27:31;15.02;;;6.80;;
51048;SDS011;37084;55.228;36.450;2023-12-07T11:30:34;13.85;;;6.75;;
51048;SDS011;37084;55.228;36.450;2023-12-07T11:33:37;15.20;;;7.05;;
51048;SDS011;37084;55.228;36.450;2023-12-07T11:36:41;13.10;;;6.82;;
51048;SDS011;37084;55.228;36.450;2023-12-07T11:39:43;16.60;;;6.75;;
51048;SDS011;37084;55.228;36.450;2023-12-07T11:42:47;14.25;;;6.65;;
51048;SDS011;37084;55.228;36.450;2023-12-07T11:45:50;18.25;;;7.88;;
51048;SDS011;37084;55.228;36.450;2023-12-07T11:48:55;15.68;;;7.18;;
51048;SDS011;37084;55.228;36.450;2023-12-07T11:51:58;13.88;;;7.07;;
51048;SDS011;37084;55.228;36.450;2023-12-07T11:55:00;18.15;;;7.22;;
51048;SDS011;37084;55.228;36.450;2023-12-07T11:58:04;14.23;;;6.40;;
51048;SDS011;37084;55.228;36.450;2023-12-07T12:01:07;14.40;;;7.22;;
51048;SDS011;37084;55.228;36.450;2023-12-07T12:04:10;15.68;;;6.75;;
51048;SDS011;37084;55.228;36.450;2023-12-07T12:10:15;13.68;;;6.68;;
51048;SDS011;37084;55.228;36.450;2023-12-07T12:13:18;13.18;;;6.78;;
51048;SDS011;37084;55.228;36.450;2023-12-07T12:16:24;11.45;;;6.43;;
51048;SDS011;37084;55.228;36.450;2023-12-07T12:19:26;12.77;;;6.63;;
51048;SDS011;37084;55.228;36.450;2023-12-07T12:22:28;14.40;;;7.10;;
51048;SDS011;37084;55.228;36.450;2023-12-07T12:25:30;14.23;;;6.10;;
51048;SDS011;37084;55.228;36.450;2023-12-07T12:28:32;12.20;;;6.38;;
51048;SDS011;37084;55.228;36.450;2023-12-07T12:31:36;16.08;;;6.80;;
51048;SDS011;37084;55.228;36.450;2023-12-07T12:34:38;11.93;;;5.10;;
51048;SDS011;37084;55.228;36.450;2023-12-07T12:37:41;14.32;;;5.65;;
51048;SDS011;37084;55.228;36.450;2023-12-07T12:40:46;15.90;;;6.22;;
51048;SDS011;37084;55.228;36.450;2023-12-07T12:43:48;14.05;;;6.47;;
51048;SDS011;37084;55.228;36.450;2023-12-07T12:46:50;17.00;;;6.22;;
51048;SDS011;37084;55.228;36.450;2023-12-07T12:49:52;14.27;;;5.50;;
51048;SDS011;37084;55.228;36.450;2023-12-07T12:52:57;13.48;;;5.53;;
51048;SDS011;37084;55.228;36.450;2023-12-07T12:55:59;14.10;;;5.15;;
51048;SDS011;37084;55.228;36.450;2023-12-07T12:59:03;10.48;;;5.15;;
51048;SDS011;37084;55.228;36.450;2023-12-07T13:02:06;12.75;;;5.22;;
51048;SDS011;37084;55.228;36.450;2023-12-07T13:05:12;11.88;;;4.88;;
51048;SDS011;37084;55.228;36.450;2023-12-07T13:08:13;12.93;;;4.60;;
51048;SDS011;37084;55.228;36.450;2023-12-07T13:11:18;10.85;;;5.07;;
51048;SDS011;37084;55.228;36.450;2023-12-07T13:14:20;10.48;;;4.65;;
51048;SDS011;37084;55.228;36.450;2023-12-07T13:17:21;8.05;;;3.70;;
51048;SDS011;37084;55.228;36.450;2023-12-07T13:20:23;12.60;;;5.15;;
51048;SDS011;37084;55.228;36.450;2023-12-07T13:23:25;16.02;;;6.28;;
51048;SDS011;37084;55.228;36.450;2023-12-07T13:26:28;11.50;;;4.90;;
51048;SDS011;37084;55.228;36.450;2023-12-07T13:29:29;11.90;;;5.40;;
51048;SDS011;37084;55.228;36.450;2023-12-07T13:32:31;10.90;;;4.22;;
51048;SDS011;37084;55.228;36.450;2023-12-07T13:35:33;12.75;;;4.93;;
51048;SDS011;37084;55.228;36.450;2023-12-07T13:38:35;7.90;;;3.97;;
51048;SDS011;37084;55.228;36.450;2023-12-07T13:41:37;12.40;;;4.75;;
51048;SDS011;37084;55.228;36.450;2023-12-07T13:44:38;5.10;;;2.92;;
51048;SDS011;37084;55.228;36.450;2023-12-07T13:47:40;11.82;;;3.90;;
51048;SDS011;37084;55.228;36.450;2023-12-07T13:50:43;8.88;;;4.30;;
51048;SDS011;37084;55.228;36.450;2023-12-07T13:53:44;12.07;;;5.10;;
51048;SDS011;37084;55.228;36.450;2023-12-07T13:56:49;11.43;;;4.32;;
51048;SDS011;37084;55.228;36.450;2023-12-07T13:59:51;9.20;;;4.28;;
51048;SDS011;37084;55.228;36.450;2023-12-07T14:02:58;10.23;;;4.07;;
51048;SDS011;37084;55.228;36.450;2023-12-07T14:06:00;10.35;;;4.88;;
51048;SDS011;37084;55.228;36.450;2023-12-07T14:09:03;4.72;;;2.88;;
51048;SDS011;37084;55.228;36.450;2023-12-07T14:12:06;6.47;;;2.50;;
51048;SDS011;37084;55.228;36.450;2023-12-07T14:15:09;12.27;;;3.60;;
51048;SDS011;37084;55.228;36.450;2023-12-07T14:18:11;7.18;;;3.13;;
51048;SDS011;37084;55.228;36.450;2023-12-07T14:21:18;10.65;;;4.10;;
51048;SDS011;37084;55.228;36.450;2023-12-07T14:24:21;7.38;;;3.60;;
51048;SDS011;37084;55.228;36.450;2023-12-07T14:27:23;8.02;;;3.25;;
51048;SDS011;37084;55.228;36.450;2023-12-07T14:30:27;7.13;;;3.72;;
51048;SDS011;37084;55.228;36.450;2023-12-07T14:33:28;10.25;;;4.47;;
51048;SDS011;37084;55.228;36.450;2023-12-07T14:36:32;5.88;;;2.92;;
51048;SDS011;37084;55.228;36.450;2023-12-07T14:39:39;8.90;;;4.07;;
51048;SDS011;37084;55.228;36.450;2023-12-07T14:42:42;11.05;;;4.53;;
51048;SDS011;37084;55.228;36.450;2023-12-07T14:45:46;12.98;;;4.75;;
51048;SDS011;37084;55.228;36.450;2023-12-07T14:48:48;5.00;;;3.60;;
51048;SDS011;37084;55.228;36.450;2023-12-07T14:51:49;7.70;;;3.65;;
51048;SDS011;37084;55.228;36.450;2023-12-07T14:54:51;15.55;;;4.88;;
51048;SDS011;37084;55.228;36.450;2023-12-07T14:57:54;9.25;;;4.25;;
51048;SDS011;37084;55.228;36.450;2023-12-07T15:00:57;7.55;;;3.33;;
51048;SDS011;37084;55.228;36.450;2023-12-07T15:03:58;10.90;;;3.97;;
51048;SDS011;37084;55.228;36.450;2023-12-07T15:07:00;9.40;;;3.55;;
51048;SDS011;37084;55.228;36.450;2023-12-07T15:10:04;4.97;;;2.42;;
51048;SDS011;37084;55.228;36.450;2023-12-07T15:13:06;9.82;;;3.22;;
51048;SDS011;37084;55.228;36.450;2023-12-07T15:16:08;8.05;;;3.05;;
51048;SDS011;37084;55.228;36.450;2023-12-07T15:19:12;6.90;;;2.75;;
51048;SDS011;37084;55.228;36.450;2023-12-07T15:22:14;6.53;;;2.92;;
51048;SDS011;37084;55.228;36.450;2023-12-07T15:25:17;9.02;;;2.92;;
51048;SDS011;37084;55.228;36.450;2023-12-07T15:28:20;4.32;;;2.75;;
51048;SDS011;37084;55.228;36.450;2023-12-07T15:31:24;7.10;;;3.47;;
51048;SDS011;37084;55.228;36.450;2023-12-07T15:34:26;6.38;;;2.40;;
51048;SDS011;37084;55.228;36.450;2023-12-07T15:37:27;12.00;;;4.50;;
51048;SDS011;37084;55.228;36.450;2023-12-07T15:40:28;9.65;;;4.13;;
51048;SDS011;37084;55.228;36.450;2023-12-07T15:43:36;7.30;;;3.78;;
51048;SDS011;37084;55.228;36.450;2023-12-07T15:46:39;7.82;;;4.03;;
51048;SDS011;37084;55.228;36.450;2023-12-07T15:49:41;13.98;;;4.85;;
51048;SDS011;37084;55.228;36.450;2023-12-07T15:52:43;5.10;;;2.38;;
51048;SDS011;37084;55.228;36.450;2023-12-07T15:55:45;8.18;;;3.13;;
51048;SDS011;37084;55.228;36.450;2023-12-07T15:58:47;5.00;;;3.15;;
51048;SDS011;37084;55.228;36.450;2023-12-07T16:01:52;4.18;;;2.25;;
51048;SDS011;37084;55.228;36.450;2023-12-07T16:04:54;8.55;;;4.18;;
51048;SDS011;37084;55.228;36.450;2023-12-07T16:12:16;8.52;;;4.32;;
51048;SDS011;37084;55.228;36.450;2023-12-07T16:15:18;6.45;;;3.25;;
51048;SDS011;37084;55.228;36.450;2023-12-07T16:18:20;4.80;;;2.72;;
51048;SDS011;37084;55.228;36.450;2023-12-07T16:21:27;7.63;;;4.43;;
51048;SDS011;37084;55.228;36.450;2023-12-07T16:24:31;6.03;;;2.88;;
51048;SDS011;37084;55.228;36.450;2023-12-07T16:27:33;15.15;;;5.40;;
51048;SDS011;37084;55.228;36.450;2023-12-07T16:30:36;3.20;;;1.60;;
51048;SDS011;37084;55.228;36.450;2023-12-07T16:33:39;7.60;;;3.53;;
51048;SDS011;37084;55.228;36.450;2023-12-07T16:36:48;7.45;;;3.58;;
51048;SDS011;37084;55.228;36.450;2023-12-07T16:39:52;8.15;;;4.57;;
51048;SDS011;37084;55.228;36.450;2023-12-07T16:42:57;6.53;;;3.47;;
51048;SDS011;37084;55.228;36.450;2023-12-07T16:46:06;15.95;;;4.82;;
51048;SDS011;37084;55.228;36.450;2023-12-07T16:49:08;12.23;;;4.55;;
51048;SDS011;37084;55.228;36.450;2023-12-07T16:52:11;10.38;;;3.55;;
51048;SDS011;37084;55.228;36.450;2023-12-07T16:55:13;8.38;;;2.65;;
51048;SDS011;37084;55.228;36.450;2023-12-07T16:58:15;6.68;;;3.15;;
51048;SDS011;37084;55.228;36.450;2023-12-07T17:01:17;5.82;;;2.50;;
51048;SDS011;37084;55.228;36.450;2023-12-07T17:04:20;9.77;;;5.22;;
51048;SDS011;37084;55.228;36.450;2023-12-07T17:07:22;8.27;;;3.58;;
51048;SDS011;37084;55.228;36.450;2023-12-07T17:10:25;9.55;;;4.80;;
51048;SDS011;37084;55.228;36.450;2023-12-07T17:13:26;7.57;;;3.47;;
51048;SDS011;37084;55.228;36.450;2023-12-07T17:16:29;7.78;;;3.60;;
51048;SDS011;37084;55.228;36.450;2023-12-07T17:19:33;2.38;;;1.42;;
51048;SDS011;37084;55.228;36.450;2023-12-07T17:22:35;8.85;;;4.47;;
51048;SDS011;37084;55.228;36.450;2023-12-07T17:25:37;8.05;;;3.80;;
51048;SDS011;37084;55.228;36.450;2023-12-07T17:28:39;11.63;;;4.35;;
51048;SDS011;37084;55.228;36.450;2023-12-07T17:31:40;16.50;;;6.00;;
51048;SDS011;37084;55.228;36.450;2023-12-07T17:34:44;15.23;;;3.90;;
51048;SDS011;37084;55.228;36.450;2023-12-07T17:37:46;8.20;;;4.43;;
51048;SDS011;37084;55.228;36.450;2023-12-07T17:40:47;15.18;;;6.07;;
51048;SDS011;37084;55.228;36.450;2023-12-07T17:43:49;8.13;;;4.13;;
51048;SDS011;37084;55.228;36.450;2023-12-07T17:46:51;11.10;;;4.63;;
51048;SDS011;37084;55.228;36.450;2023-12-07T17:49:53;12.73;;;4.90;;
51048;SDS011;37084;55.228;36.450;2023-12-07T17:52:56;12.90;;;4.75;;
51048;SDS011;37084;55.228;36.450;2023-12-07T17:55:57;10.05;;;5.05;;
51048;SDS011;37084;55.228;36.450;2023-12-07T17:59:00;5.63;;;2.95;;
51048;SDS011;37084;55.228;36.450;2023-12-07T18:02:01;13.50;;;4.53;;
51048;SDS011;37084;55.228;36.450;2023-12-07T18:05:03;10.55;;;4.00;;
51048;SDS011;37084;55.228;36.450;2023-12-07T18:08:06;3.13;;;2.53;;